Time;durP1;ratioP1;P1;durP2;ratioP2;P2;SDS_P1;SDS_P2;PMS_P1;PMS_P2;Temp;Humidity;BMP_temperature;BMP_pressure;BME280_temperature;BME280_humidity;BME280_pressure;Samples;Min_cycle;Max_cycle;Signal;HPM_P1;HPM_P2
2023/06/08 00:01:18;;;;;;;35.17;22.33;;;;;;;18.56;100.00;100639.34;8290277;28;20038;-58
2023/06/08 00:05:20;;;;;;;29.83;21.27;;;;;;;18.57;100.00;100641.03;8261614;28;20039;-59
2023/06/08 00:09:21;;;;;;;32.08;19.52;;;;;;;18.75;99.75;100633.28;8246972;28;20042;-59
2023/06/08 00:13:21;;;;;;;27.27;18.63;;;;;;;18.67;100.00;100635.28;8277326;28;20168;-59
2023/06/08 00:17:23;;;;;;;27.40;20.02;;;;;;;18.61;100.00;100628.66;8260838;28;20033;-59
2023/06/08 00:21:26;;;;;;;27.67;18.58;;;;;;;18.59;100.00;100633.47;8265910;28;20065;-59
2023/06/08 00:25:26;;;;;;;31.55;17.65;;;;;;;18.63;100.00;100628.47;8293132;28;20526;-60
2023/06/08 00:29:27;;;;;;;27.38;17.30;;;;;;;18.74;99.19;100626.09;8271602;28;20465;-59
2023/06/08 00:33:27;;;;;;;24.33;17.63;;;;;;;18.70;99.04;100627.50;8271855;28;20389;-59
2023/06/08 00:37:27;;;;;;;29.55;18.17;;;;;;;18.77;98.06;100625.72;8292890;28;20637;-59
2023/06/08 00:41:29;;;;;;;29.48;18.02;;;;;;;18.59;99.17;100617.03;8283467;28;20543;-59
2023/06/08 00:45:29;;;;;;;24.80;18.08;;;;;;;18.62;99.32;100622.16;8260120;28;20463;-59
2023/06/08 00:49:32;;;;;;;26.17;18.17;;;;;;;18.55;98.93;100621.22;8282423;28;20046;-59
2023/06/08 00:53:35;;;;;;;29.17;17.50;;;;;;;18.32;97.23;100625.00;8288033;28;20538;-59
2023/06/08 00:57:36;;;;;;;28.80;18.65;;;;;;;17.98;99.91;100620.06;8291165;28;20042;-59
2023/06/08 01:01:38;;;;;;;34.78;19.30;;;;;;;17.99;100.00;100613.56;8292617;28;20046;-59
2023/06/08 01:05:43;;;;;;;29.13;19.00;;;;;;;17.96;100.00;100616.66;8291763;28;20042;-59
2023/06/08 01:09:54;;;;;;;28.85;18.60;;;;;;;18.03;100.00;100614.91;8291837;28;20042;-59
2023/06/08 01:14:36;;;;;;;27.40;17.85;;;;;;;18.09;100.00;100619.63;8290274;28;20100;-59
2023/06/08 01:18:38;;;;;;;29.55;18.83;;;;;;;18.04;100.00;100621.22;8280690;28;20038;-59
2023/06/08 01:23:03;;;;;;;28.80;18.13;;;;;;;18.02;100.00;100617.84;8273339;28;20085;-59
2023/06/08 01:27:07;;;;;;;29.42;18.90;;;;;;;18.03;100.00;100611.31;8290601;28;20619;-59
2023/06/08 01:31:07;;;;;;;27.60;18.23;;;;;;;18.02;100.00;100604.97;8288505;28;20038;-59
2023/06/08 01:35:10;;;;;;;25.63;17.38;;;;;;;17.99;100.00;100608.09;8290867;28;20054;-59
2023/06/08 01:39:51;;;;;;;26.67;18.17;;;;;;;17.95;100.00;100609.50;8291601;28;20088;-59
2023/06/08 01:43:52;;;;;;;30.98;19.13;;;;;;;17.95;100.00;100608.63;8281621;28;20040;-60
2023/06/08 01:47:58;;;;;;;27.40;17.55;;;;;;;17.80;100.00;100605.88;8291615;28;20034;-59
2023/06/08 01:52:03;;;;;;;29.42;18.27;;;;;;;17.66;100.00;100601.25;8289857;28;20065;-59
2023/06/08 01:56:04;;;;;;;28.52;17.67;;;;;;;17.60;100.00;100601.97;8289744;28;20426;-59
2023/06/08 02:00:08;;;;;;;28.38;17.73;;;;;;;17.63;100.00;100593.41;8288151;28;20038;-59
2023/06/08 02:04:26;;;;;;;24.85;17.27;;;;;;;17.68;100.00;100593.69;8354475;27;20392;-60
2023/06/08 02:08:26;;;;;;;26.02;17.33;;;;;;;17.62;100.00;100588.94;8351101;28;20499;-59
2023/06/08 02:12:27;;;;;;;26.92;18.27;;;;;;;17.66;100.00;100583.97;8351195;28;20037;-59
2023/06/08 02:16:27;;;;;;;26.95;17.85;;;;;;;17.68;100.00;100593.69;8351104;28;20640;-59
2023/06/08 02:20:30;;;;;;;26.90;17.80;;;;;;;17.60;100.00;100588.31;8350961;28;20045;-59
2023/06/08 02:24:31;;;;;;;28.98;18.05;;;;;;;17.67;100.00;100591.13;8351004;28;20484;-59
2023/06/08 02:28:31;;;;;;;31.55;18.98;;;;;;;17.69;100.00;100592.66;8351578;28;20037;-59
2023/06/08 02:32:33;;;;;;;27.02;18.80;;;;;;;17.73;100.00;100595.84;8365380;28;20469;-59
2023/06/08 02:36:33;;;;;;;33.20;19.15;;;;;;;17.82;100.00;100589.28;8349986;28;20124;-59
2023/06/08 02:40:36;;;;;;;29.20;19.52;;;;;;;17.81;100.00;100593.91;8350469;28;20043;-59
2023/06/08 02:44:37;;;;;;;27.75;18.55;;;;;;;17.55;100.00;100593.47;8350771;28;20041;-63
2023/06/08 02:48:38;;;;;;;25.85;18.63;;;;;;;17.41;100.00;100591.47;8350753;28;20439;-63
2023/06/08 02:52:38;;;;;;;30.30;19.92;;;;;;;17.27;100.00;100584.09;8348737;28;20403;-63
2023/06/08 02:56:39;;;;;;;32.58;20.10;;;;;;;17.14;100.00;100589.31;8350621;28;20040;-59
2023/06/08 03:00:40;;;;;;;32.50;19.58;;;;;;;17.12;100.00;100591.34;8349788;28;20045;-59
2023/06/08 03:04:52;;;;;;;28.55;19.08;;;;;;;17.03;100.00;100586.97;8350202;28;20171;-59
2023/06/08 03:08:53;;;;;;;27.55;18.75;;;;;;;17.01;100.00;100591.75;8340495;28;20068;-59
2023/06/08 03:12:55;;;;;;;29.42;20.35;;;;;;;17.23;100.00;100588.22;8341940;28;20068;-60
2023/06/08 03:16:57;;;;;;;30.27;19.95;;;;;;;17.42;100.00;100585.81;8326425;28;20447;-59
2023/06/08 03:21:01;;;;;;;29.52;18.88;;;;;;;17.54;100.00;100586.31;8326624;28;20041;-59
2023/06/08 03:25:04;;;;;;;35.17;20.27;;;;;;;17.63;100.00;100571.53;8327709;28;20049;-59
2023/06/08 03:29:06;;;;;;;29.92;19.45;;;;;;;17.72;100.00;100577.75;8326478;28;20025;-59
2023/06/08 03:33:07;;;;;;;28.38;19.27;;;;;;;17.74;100.00;100586.63;8327382;28;20049;-59
2023/06/08 03:37:17;;;;;;;30.88;19.33;;;;;;;17.75;100.00;100586.44;8325970;28;20404;-59
2023/06/08 03:41:18;;;;;;;32.38;20.50;;;;;;;17.86;100.00;100577.78;8325858;28;20041;-59
2023/06/08 03:45:23;;;;;;;29.38;18.70;;;;;;;17.88;100.00;100583.94;8325566;28;20045;-59
2023/06/08 03:49:26;;;;;;;30.42;19.35;;;;;;;17.92;100.00;100574.31;8327014;28;20034;-60
2023/06/08 03:53:28;;;;;;;27.63;18.02;;;;;;;18.01;100.00;100578.66;8325967;28;20195;-59
2023/06/08 03:57:29;;;;;;;34.05;18.77;;;;;;;18.02;100.00;100580.34;8326489;28;20045;-59
2023/06/08 04:01:30;;;;;;;26.42;19.05;;;;;;;17.93;100.00;100584.22;8321330;28;20042;-59
2023/06/08 04:05:33;;;;;;;27.27;19.05;;;;;;;18.00;100.00;100579.72;8326688;28;20518;-59
2023/06/08 04:09:35;;;;;;;28.63;19.10;;;;;;;18.03;100.00;100582.06;8326487;28;20041;-59
2023/06/08 04:13:38;;;;;;;28.15;18.38;;;;;;;18.04;100.00;100578.28;8324992;28;20037;-59
2023/06/08 04:17:42;;;;;;;32.30;17.60;;;;;;;18.10;100.00;100587.63;8324726;28;20137;-58
2023/06/08 04:21:44;;;;;;;27.35;18.48;;;;;;;17.97;100.00;100582.81;8325297;28;20128;-59
2023/06/08 04:25:46;;;;;;;28.30;17.55;;;;;;;18.25;100.00;100575.66;8324841;28;20056;-59
2023/06/08 04:29:47;;;;;;;21.20;16.83;;;;;;;18.29;100.00;100579.72;8324855;28;20045;-59
2023/06/08 04:33:47;;;;;;;22.08;16.35;;;;;;;18.52;99.81;100577.78;8324327;28;20041;-59
2023/06/08 04:37:48;;;;;;;28.48;17.23;;;;;;;18.63;98.63;100570.97;8325073;28;20037;-59
2023/06/08 04:41:49;;;;;;;29.85;17.33;;;;;;;18.80;98.90;100567.81;8323630;28;20049;-59
2023/06/08 04:45:57;;;;;;;25.77;16.92;;;;;;;18.95;98.13;100574.09;8324554;28;20049;-61
2023/06/08 04:49:58;;;;;;;26.42;16.35;;;;;;;19.10;97.57;100577.66;8323185;28;20041;-59
2023/06/08 04:53:59;;;;;;;24.00;15.52;;;;;;;19.34;95.75;100573.72;8324321;28;20037;-60
2023/06/08 04:58:00;;;;;;;28.25;15.98;;;;;;;19.44;94.05;100586.06;8324522;28;20084;-59
2023/06/08 05:02:01;;;;;;;26.90;15.65;;;;;;;19.64;94.50;100579.91;8322530;28;20519;-59
2023/06/08 05:06:01;;;;;;;22.40;15.68;;;;;;;19.87;93.69;100580.50;8324672;28;20118;-59
2023/06/08 05:10:03;;;;;;;25.30;16.23;;;;;;;19.76;92.41;100590.13;8323342;28;20041;-59
2023/06/08 05:14:04;;;;;;;27.80;15.60;;;;;;;19.93;92.17;100590.69;8322585;28;20033;-59
2023/06/08 05:18:04;;;;;;;23.23;15.35;;;;;;;20.18;90.70;100583.72;8323057;28;20064;-59
2023/06/08 05:22:05;;;;;;;23.45;14.65;;;;;;;20.40;88.67;100588.13;8319407;28;20121;-59
2023/06/08 05:26:05;;;;;;;23.15;14.43;;;;;;;20.49;88.03;100582.25;8323665;28;20037;-59
2023/06/08 05:30:06;;;;;;;22.50;14.80;;;;;;;20.44;88.10;100592.16;8322563;28;20053;-59
2023/06/08 05:34:07;;;;;;;26.73;14.93;;;;;;;20.61;88.08;100579.75;8320473;28;20692;-59
2023/06/08 05:38:08;;;;;;;23.48;14.57;;;;;;;20.67;87.74;100585.31;8314761;28;20041;-59
2023/06/08 05:42:10;;;;;;;22.40;14.15;;;;;;;20.78;87.39;100590.25;8322190;28;20346;-59
2023/06/08 05:46:10;;;;;;;26.55;14.27;;;;;;;20.95;85.51;100582.53;8323156;28;20041;-60
2023/06/08 05:50:11;;;;;;;28.48;14.20;;;;;;;21.32;84.21;100584.75;8322226;28;20124;-59
2023/06/08 05:54:11;;;;;;;23.25;12.65;;;;;;;21.32;83.99;100580.06;8318007;28;20511;-59
2023/06/08 05:58:12;;;;;;;21.63;13.88;;;;;;;21.44;83.53;100583.06;8319705;28;20072;-59
2023/06/08 06:02:13;;;;;;;23.25;13.35;;;;;;;21.52;82.88;100585.59;8319283;28;20065;-59
2023/06/08 06:06:13;;;;;;;21.77;12.50;;;;;;;21.90;82.75;100577.63;8322254;28;20034;-59
2023/06/08 06:10:14;;;;;;;18.70;11.52;;;;;;;21.91;80.74;100580.16;8322749;28;20377;-59
2023/06/08 06:14:15;;;;;;;18.50;12.40;;;;;;;22.14;79.45;100588.81;8323198;28;20036;-59
2023/06/08 06:18:16;;;;;;;20.02;13.05;;;;;;;22.07;78.87;100574.22;8322151;28;20343;-59
2023/06/08 06:22:17;;;;;;;24.50;13.80;;;;;;;22.19;78.16;100578.03;8307424;28;20444;-59
2023/06/08 06:26:17;;;;;;;21.52;11.77;;;;;;;22.42;77.91;100583.06;8311466;28;20030;-59
2023/06/08 06:30:18;;;;;;;20.88;12.30;;;;;;;22.29;77.48;100583.09;8288023;28;20038;-59
2023/06/08 06:34:20;;;;;;;16.17;10.73;;;;;;;22.55;76.65;100581.16;8313204;28;20407;-59
2023/06/08 06:38:20;;;;;;;18.77;11.93;;;;;;;23.20;74.95;100578.13;8355032;28;20040;-60
2023/06/08 06:42:21;;;;;;;16.20;10.45;;;;;;;23.22;74.05;100583.41;8305867;28;20078;-60
2023/06/08 06:46:32;;;;;;;19.60;11.77;;;;;;;23.28;73.56;100581.72;8322754;28;20038;-59
2023/06/08 06:50:33;;;;;;;16.25;10.20;;;;;;;23.56;73.93;100590.44;8327037;28;20040;-59
2023/06/08 06:54:33;;;;;;;16.13;10.45;;;;;;;23.79;72.44;100590.72;8328359;28;20049;-59
2023/06/08 06:58:34;;;;;;;15.50;10.80;;;;;;;23.72;70.86;100595.44;8304813;28;20496;-59
2023/06/08 07:02:37;;;;;;;17.17;10.70;;;;;;;23.77;70.82;100595.59;8294670;28;20042;-60
2023/06/08 07:06:37;;;;;;;18.38;10.15;;;;;;;24.29;70.44;100601.56;8304558;28;20554;-59
2023/06/08 07:10:38;;;;;;;17.73;10.10;;;;;;;24.13;68.72;100599.38;8318833;28;20419;-59
2023/06/08 07:14:38;;;;;;;17.10;10.65;;;;;;;23.99;70.22;100594.16;8326290;28;20257;-59
2023/06/08 07:18:39;;;;;;;17.57;10.17;;;;;;;24.12;69.68;100588.56;8310107;28;20044;-59
2023/06/08 07:22:40;;;;;;;14.82;10.52;;;;;;;23.96;70.67;100591.84;8316092;28;20276;-60
2023/06/08 07:26:40;;;;;;;13.95;9.82;;;;;;;24.26;70.43;100588.19;8326948;28;20041;-59
2023/06/08 07:30:40;;;;;;;20.48;10.05;;;;;;;24.77;68.80;100587.88;8315740;28;20124;-59
2023/06/08 07:34:42;;;;;;;15.93;10.38;;;;;;;24.40;69.23;100586.16;8331172;28;20491;-59
2023/06/08 07:38:42;;;;;;;16.80;8.97;;;;;;;24.66;69.19;100580.34;8340870;28;20403;-60
2023/06/08 07:42:43;;;;;;;10.52;8.43;;;;;;;24.77;67.59;100588.69;8326220;28;20634;-59
2023/06/08 07:46:44;;;;;;;10.30;7.85;;;;;;;24.71;66.53;100580.50;8322031;28;20042;-59
2023/06/08 07:50:44;;;;;;;12.80;9.25;;;;;;;24.64;66.88;100582.47;8321984;28;20446;-59
2023/06/08 07:54:45;;;;;;;15.38;8.68;;;;;;;24.90;66.87;100582.19;8325372;28;20041;-60
2023/06/08 07:58:45;;;;;;;11.40;8.57;;;;;;;24.68;66.45;100579.06;8321344;28;20526;-60
2023/06/08 08:02:47;;;;;;;15.25;9.05;;;;;;;24.91;67.51;100581.09;8291340;28;20053;-59
2023/06/08 08:06:47;;;;;;;12.75;9.27;;;;;;;25.08;65.79;100579.41;8311137;28;20044;-59
2023/06/08 08:10:47;;;;;;;12.80;8.60;;;;;;;25.01;66.59;100589.72;8322965;28;20041;-60
2023/06/08 08:14:48;;;;;;;9.40;8.23;;;;;;;25.09;66.52;100580.25;8324029;28;20037;-59
2023/06/08 08:18:48;;;;;;;12.18;8.82;;;;;;;25.34;66.55;100578.22;8324562;28;20033;-60
2023/06/08 08:22:50;;;;;;;11.38;8.88;;;;;;;25.39;66.13;100576.44;8323075;28;20591;-59
2023/06/08 08:26:55;;;;;;;11.68;9.05;;;;;;;25.53;64.50;100572.41;8323249;28;20108;-61
2023/06/08 08:30:56;;;;;;;12.65;8.38;;;;;;;25.48;64.59;100568.63;8323447;28;20099;-60
2023/06/08 08:34:56;;;;;;;12.70;7.65;;;;;;;25.84;66.29;100558.25;8322927;28;20038;-60
2023/06/08 08:38:57;;;;;;;8.00;7.15;;;;;;;25.73;63.71;100564.59;8305110;28;20057;-60
2023/06/08 08:43:02;;;;;;;10.68;7.88;;;;;;;26.17;64.56;100557.69;8318404;28;20540;-60
2023/06/08 08:47:04;;;;;;;9.32;7.55;;;;;;;26.22;63.11;100560.56;8322583;28;20111;-60
2023/06/08 08:51:09;;;;;;;11.10;9.07;;;;;;;25.94;62.94;100564.03;8294190;28;20034;-59
2023/06/08 08:55:10;;;;;;;9.85;8.85;;;;;;;25.87;62.29;100552.22;8320702;28;20051;-60
2023/06/08 08:59:11;;;;;;;9.77;7.82;;;;;;;26.11;63.00;100547.56;8319714;28;20045;-59
2023/06/08 09:03:12;;;;;;;11.60;7.55;;;;;;;26.29;62.77;100553.81;8320201;28;20068;-60
2023/06/08 09:07:18;;;;;;;12.55;8.55;;;;;;;26.32;61.54;100550.56;8335444;28;20038;-60
2023/06/08 09:11:19;;;;;;;11.43;8.25;;;;;;;26.49;61.08;100551.53;8318223;28;20450;-60
2023/06/08 09:15:33;;;;;;;9.57;7.28;;;;;;;26.50;61.99;100553.22;8319686;28;20110;-59
2023/06/08 09:19:34;;;;;;;7.90;6.65;;;;;;;26.78;60.79;100556.06;8319697;28;20038;-59
2023/06/08 09:23:34;;;;;;;7.63;6.32;;;;;;;26.55;60.36;100549.69;8318461;28;20492;-60
2023/06/08 09:27:35;;;;;;;8.33;6.90;;;;;;;26.65;59.89;100547.19;8309456;28;20045;-60
2023/06/08 09:31:39;;;;;;;8.57;6.50;;;;;;;26.97;60.15;100550.34;8312610;28;20304;-60
2023/06/08 09:35:40;;;;;;;6.95;6.25;;;;;;;27.21;58.48;100546.41;8288134;28;20555;-59
2023/06/08 09:39:42;;;;;;;8.45;6.32;;;;;;;27.34;59.31;100548.91;8296700;28;20400;-60
2023/06/08 09:43:45;;;;;;;6.65;5.95;;;;;;;27.46;60.28;100546.91;8316862;28;20037;-60
2023/06/08 09:47:47;;;;;;;7.20;6.17;;;;;;;27.46;58.37;100541.34;8318918;28;20103;-59
2023/06/08 09:51:50;;;;;;;8.25;5.80;;;;;;;27.52;58.65;100537.59;8309542;28;20280;-60
2023/06/08 09:55:53;;;;;;;9.77;6.33;;;;;;;27.87;57.94;100536.28;8315711;28;20041;-61
2023/06/08 10:00:09;;;;;;;7.32;6.63;;;;;;;28.40;56.47;100525.47;8314921;28;20047;-59
2023/06/08 10:04:37;;;;;;;8.10;6.32;;;;;;;29.93;54.91;100528.66;8409628;27;20124;-59
2023/06/08 10:08:39;;;;;;;9.23;6.10;;;;;;;31.05;52.20;100531.03;8348070;28;20052;-59
2023/06/08 10:12:40;;;;;;;8.13;6.63;;;;;;;32.16;50.28;100528.13;8347557;28;20662;-59
2023/06/08 10:16:42;;;;;;;12.10;6.07;;;;;;;32.18;48.63;100534.31;8345322;28;20615;-59
2023/06/08 10:20:43;;;;;;;9.80;6.35;;;;;;;31.45;51.59;100517.19;8347285;28;20128;-59
2023/06/08 10:24:46;;;;;;;8.52;6.25;;;;;;;32.56;49.25;100521.63;8338231;28;20121;-59
2023/06/08 10:29:03;;;;;;;7.22;5.75;;;;;;;33.65;48.52;100513.81;8324892;28;20095;-60
2023/06/08 10:33:11;;;;;;;6.78;6.07;;;;;;;33.38;46.53;100512.59;8336977;28;20371;-59
2023/06/08 10:37:32;;;;;;;7.13;6.18;;;;;;;33.52;47.38;100506.09;8347109;28;20455;-59
2023/06/08 10:41:55;;;;;;;8.98;6.32;;;;;;;32.68;47.29;100501.69;8331716;28;20057;-59
2023/06/08 10:45:58;;;;;;;11.30;6.60;;;;;;;31.55;49.61;100500.41;8413395;28;20044;-59
2023/06/08 10:50:02;;;;;;;7.67;5.37;;;;;;;32.16;48.72;100491.75;8412688;28;20052;-59
2023/06/08 10:54:06;;;;;;;7.43;6.00;;;;;;;30.22;52.05;100490.94;8364551;28;20441;-59
2023/06/08 10:58:16;;;;;;;6.50;5.90;;;;;;;30.89;51.25;100476.22;8399466;28;20036;-59
2023/06/08 11:02:17;;;;;;;7.65;5.97;;;;;;;32.68;48.02;100468.94;8377466;28;20278;-60
2023/06/08 11:06:17;;;;;;;5.82;5.30;;;;;;;33.58;48.30;100473.22;8346912;28;20567;-59
2023/06/08 11:10:20;;;;;;;6.40;5.80;;;;;;;33.75;46.17;100484.84;8349621;28;20076;-59
2023/06/08 11:14:21;;;;;;;5.85;5.00;;;;;;;33.02;47.83;100469.91;8331703;28;20774;-60
2023/06/08 11:18:23;;;;;;;7.45;5.63;;;;;;;30.84;51.07;100473.41;8324409;28;20037;-60
2023/06/08 11:22:23;;;;;;;10.00;6.40;;;;;;;31.90;50.42;100469.69;8323145;28;20124;-59
2023/06/08 11:26:24;;;;;;;6.28;5.55;;;;;;;33.48;47.51;100459.28;8324584;28;20029;-59
2023/06/08 11:30:28;;;;;;;6.18;5.60;;;;;;;34.44;45.41;100453.59;8323753;28;20033;-59
2023/06/08 11:34:29;;;;;;;6.88;6.05;;;;;;;32.65;47.59;100452.72;8323119;28;20475;-59
2023/06/08 11:38:30;;;;;;;6.90;6.22;;;;;;;30.82;50.61;100447.69;8324031;28;20041;-59
2023/06/08 11:42:30;;;;;;;6.05;5.10;;;;;;;32.38;49.93;100443.84;8322070;28;20500;-59
2023/06/08 11:46:32;;;;;;;6.27;5.67;;;;;;;32.71;47.69;100437.56;8323066;28;20041;-60
2023/06/08 11:50:33;;;;;;;6.75;6.00;;;;;;;32.51;48.39;100440.47;8322728;28;20276;-60
2023/06/08 11:54:35;;;;;;;7.95;5.80;;;;;;;33.59;45.24;100433.66;8354788;28;20511;-59
2023/06/08 11:58:37;;;;;;;7.18;6.57;;;;;;;33.65;44.96;100424.06;8323616;28;20041;-60
2023/06/08 12:02:38;;;;;;;6.83;6.00;;;;;;;31.98;47.69;100424.34;8321861;28;20056;-60
2023/06/08 12:06:39;;;;;;;7.20;5.70;;;;;;;30.78;50.98;100418.66;8322997;28;20037;-60
2023/06/08 12:10:41;;;;;;;6.72;5.90;;;;;;;29.99;52.26;100416.03;8322466;28;20522;-65
2023/06/08 12:14:44;;;;;;;9.50;5.97;;;;;;;29.71;53.12;100402.47;8322244;28;20038;-64
2023/06/08 12:18:45;;;;;;;7.72;6.10;;;;;;;30.15;53.29;100392.69;8320905;28;20040;-65
2023/06/08 12:22:45;;;;;;;7.25;5.82;;;;;;;30.54;53.33;100386.72;8312048;28;20116;-64
2023/06/08 12:26:45;;;;;;;8.13;6.60;;;;;;;29.90;53.50;100391.69;8325602;28;20033;-65
2023/06/08 12:30:46;;;;;;;9.77;6.40;;;;;;;29.29;56.23;100387.63;8321499;28;20408;-64
2023/06/08 12:34:46;;;;;;;7.43;6.40;;;;;;;28.85;57.12;100396.34;8320584;28;20436;-64
2023/06/08 12:38:47;;;;;;;8.43;7.15;;;;;;;28.67;57.91;100389.22;8322530;28;20037;-64
2023/06/08 12:42:49;;;;;;;8.02;7.00;;;;;;;28.41;57.85;100392.75;8321641;28;20128;-64
2023/06/08 12:46:50;;;;;;;12.10;6.78;;;;;;;28.43;58.19;100387.78;8321456;28;20053;-65
2023/06/08 12:50:51;;;;;;;7.68;6.40;;;;;;;28.61;57.08;100381.91;8310093;28;20573;-63
2023/06/08 12:54:51;;;;;;;8.40;6.47;;;;;;;28.83;56.35;100373.50;8304014;28;20076;-64
2023/06/08 12:58:53;;;;;;;7.80;6.82;;;;;;;28.79;55.26;100370.41;8305803;28;20395;-64
2023/06/08 13:02:53;;;;;;;9.65;6.35;;;;;;;28.94;56.24;100361.38;8321150;28;20036;-65
2023/06/08 13:06:54;;;;;;;6.85;6.05;;;;;;;28.86;55.23;100367.41;8321236;28;20492;-64
2023/06/08 13:10:54;;;;;;;9.75;8.00;;;;;;;28.89;58.87;100353.81;8320759;28;20037;-64
2023/06/08 13:14:55;;;;;;;9.55;7.75;;;;;;;29.57;59.48;100345.47;8337835;28;20124;-64
2023/06/08 13:18:56;;;;;;;12.23;7.55;;;;;;;29.62;58.61;100337.19;8353539;28;20691;-65
2023/06/08 13:22:57;;;;;;;9.93;7.97;;;;;;;29.83;57.40;100333.41;8322120;28;20033;-64
2023/06/08 13:26:58;;;;;;;13.70;8.65;;;;;;;29.61;56.83;100340.22;8320920;28;20038;-64
2023/06/08 13:30:59;;;;;;;9.23;7.63;;;;;;;29.46;58.77;100346.50;8320065;28;20153;-65
2023/06/08 13:34:59;;;;;;;8.18;7.38;;;;;;;28.77;57.73;100360.63;8320704;28;20044;-64
2023/06/08 13:39:00;;;;;;;21.27;9.52;;;;;;;27.73;66.04;100365.41;8315871;28;20037;-65
2023/06/08 13:43:01;;;;;;;22.75;10.27;;;;;;;25.22;79.54;100381.59;8320749;28;20132;-60
2023/06/08 13:47:01;;;;;;;23.00;13.25;;;;;;;23.75;83.98;100394.25;8320304;28;20056;-59
2023/06/08 13:51:03;;;;;;;16.77;12.77;;;;;;;22.86;89.13;100404.78;8321282;28;20033;-59
2023/06/08 13:55:04;;;;;;;19.50;12.70;;;;;;;22.12;97.69;100389.91;8353657;28;20056;-59
2023/06/08 13:59:05;;;;;;;10.98;9.35;;;;;;;21.96;88.10;100401.38;8323714;28;20037;-59
2023/06/08 14:03:05;;;;;;;16.80;11.88;;;;;;;22.06;95.70;100379.78;8319926;28;20524;-58
2023/06/08 14:07:06;;;;;;;16.73;10.80;;;;;;;22.31;92.58;100377.94;8320761;28;20408;-59
2023/06/08 14:11:06;;;;;;;15.38;12.05;;;;;;;22.13;92.75;100355.78;8318998;28;20033;-59
2023/06/08 14:15:07;;;;;;;20.48;13.32;;;;;;;21.99;97.53;100369.84;8318808;28;20545;-59
2023/06/08 14:19:07;;;;;;;19.27;13.45;;;;;;;21.97;99.60;100370.06;8336367;28;20114;-63
2023/06/08 14:23:08;;;;;;;19.50;13.25;;;;;;;22.05;99.81;100360.72;8311357;28;20412;-63
2023/06/08 14:27:08;;;;;;;19.15;12.90;;;;;;;22.22;98.27;100362.75;8312335;28;20030;-62
2023/06/08 14:31:10;;;;;;;21.65;14.90;;;;;;;22.43;100.00;100354.16;8286265;28;20040;-63
2023/06/08 14:35:11;;;;;;;16.15;13.15;;;;;;;22.54;100.00;100345.19;8316065;28;20046;-62
2023/06/08 14:39:11;;;;;;;15.30;13.23;;;;;;;22.75;97.29;100325.53;8318891;28;20542;-62
2023/06/08 14:43:11;;;;;;;19.42;12.80;;;;;;;22.71;97.45;100321.56;8319103;28;20053;-59
2023/06/08 14:47:12;;;;;;;17.73;12.82;;;;;;;22.63;98.67;100310.78;8338583;28;20090;-59
2023/06/08 14:51:14;;;;;;;20.40;14.20;;;;;;;22.75;100.00;100311.75;8325825;28;20044;-59
2023/06/08 14:55:15;;;;;;;20.65;15.30;;;;;;;22.96;100.00;100319.63;8350231;28;20143;-59
2023/06/08 14:59:15;;;;;;;19.83;14.70;;;;;;;23.10;100.00;100312.94;8321077;28;21268;-59
2023/06/08 15:03:15;;;;;;;19.08;14.88;;;;;;;23.39;100.00;100310.56;8321770;28;20038;-59
2023/06/08 15:07:16;;;;;;;17.38;14.13;;;;;;;23.57;97.87;100313.34;8325456;28;20056;-59
2023/06/08 15:11:18;;;;;;;22.60;14.32;;;;;;;23.91;99.69;100315.47;8322997;28;20044;-62
2023/06/08 15:15:18;;;;;;;19.08;13.32;;;;;;;23.95;96.83;100316.72;8322917;28;20048;-59
2023/06/08 15:19:19;;;;;;;23.80;13.93;;;;;;;24.17;97.10;100315.16;8319849;28;20041;-59
2023/06/08 15:23:19;;;;;;;19.00;14.10;;;;;;;24.19;96.18;100307.47;8346653;28;20440;-60
2023/06/08 15:27:20;;;;;;;17.52;13.52;;;;;;;24.06;96.71;100296.63;8340113;28;20045;-59
2023/06/08 15:31:21;;;;;;;18.65;13.65;;;;;;;23.97;100.00;100303.53;8322636;28;20074;-59
2023/06/08 15:35:22;;;;;;;21.10;14.40;;;;;;;23.92;100.00;100300.59;8320895;28;20033;-60
2023/06/08 15:39:22;;;;;;;19.13;15.52;;;;;;;23.78;100.00;100299.09;8322844;28;20040;-60
2023/06/08 15:43:22;;;;;;;20.58;13.88;;;;;;;23.69;100.00;100294.94;8322197;28;20103;-60
2023/06/08 15:47:23;;;;;;;22.60;14.70;;;;;;;23.69;100.00;100289.41;8322890;28;20236;-61
2023/06/08 15:51:31;;;;;;;22.13;14.18;;;;;;;23.73;99.97;100290.63;8321632;28;20053;-60
2023/06/08 15:55:32;;;;;;;18.83;15.55;;;;;;;23.68;100.00;100283.03;8325582;28;20072;-59
2023/06/08 15:59:34;;;;;;;18.27;14.57;;;;;;;23.67;100.00;100281.38;8326027;28;20033;-63
2023/06/08 16:03:34;;;;;;;23.52;14.95;;;;;;;23.87;100.00;100268.13;8320256;28;20407;-63
2023/06/08 16:07:35;;;;;;;17.05;13.77;;;;;;;24.20;95.69;100257.50;8321612;28;20052;-63
2023/06/08 16:11:35;;;;;;;19.20;14.02;;;;;;;24.51;98.04;100245.31;8326618;28;20040;-63
2023/06/08 16:15:35;;;;;;;20.90;14.02;;;;;;;24.76;96.15;100238.53;8320687;28;20065;-63
2023/06/08 16:19:36;;;;;;;16.77;14.80;;;;;;;24.90;96.75;100239.16;8319006;28;20030;-63
2023/06/08 16:23:36;;;;;;;20.23;13.63;;;;;;;25.12;94.25;100231.94;8319454;28;20041;-63
2023/06/08 16:27:37;;;;;;;15.55;13.07;;;;;;;25.32;93.42;100243.50;8307841;28;20055;-63
2023/06/08 16:31:40;;;;;;;17.90;14.35;;;;;;;25.52;96.06;100238.41;8304741;28;20029;-63
2023/06/08 16:35:40;;;;;;;15.67;13.47;;;;;;;25.55;93.14;100239.84;8321322;28;20743;-63
2023/06/08 16:39:41;;;;;;;14.85;12.13;;;;;;;25.56;90.55;100244.31;8320559;28;20057;-63
2023/06/08 16:43:43;;;;;;;15.25;13.50;;;;;;;25.49;93.13;100244.44;8318771;28;20249;-63
2023/06/08 16:47:44;;;;;;;16.55;13.63;;;;;;;25.60;94.33;100240.81;8320915;28;20065;-63
2023/06/08 16:51:44;;;;;;;20.17;13.60;;;;;;;25.72;89.84;100249.91;8320280;28;20037;-63
2023/06/08 16:55:45;;;;;;;17.77;13.02;;;;;;;25.91;90.42;100248.66;8295217;28;20078;-63
2023/06/08 16:59:46;;;;;;;18.40;13.80;;;;;;;26.01;90.62;100248.88;8287742;28;20435;-63
2023/06/08 17:03:46;;;;;;;18.70;13.88;;;;;;;25.83;91.00;100250.97;8287611;28;20073;-63
2023/06/08 17:07:46;;;;;;;16.08;13.98;;;;;;;25.94;92.14;100247.28;8287612;28;20121;-63
2023/06/08 17:11:47;;;;;;;16.55;14.07;;;;;;;26.11;93.12;100249.09;8312763;28;20117;-63
2023/06/08 17:15:47;;;;;;;19.80;13.63;;;;;;;26.21;91.09;100246.50;8316916;28;20041;-63
2023/06/08 17:19:49;;;;;;;18.13;12.83;;;;;;;26.40;88.65;100256.28;8319538;28;20134;-63
2023/06/08 17:23:50;;;;;;;13.00;10.40;;;;;;;26.43;83.69;100253.00;8308554;28;20273;-63
2023/06/08 17:27:51;;;;;;;9.57;6.75;;;;;;;26.54;71.47;100251.25;8334543;28;20090;-63
2023/06/08 17:31:51;;;;;;;7.10;6.40;;;;;;;26.47;70.39;100253.34;8315934;28;20049;-62
2023/06/08 17:35:52;;;;;;;8.50;6.78;;;;;;;26.50;70.22;100253.69;8318867;28;20037;-62
2023/06/08 17:39:52;;;;;;;7.15;6.45;;;;;;;26.44;70.04;100242.75;8304998;28;20044;-63
2023/06/08 17:43:53;;;;;;;8.75;5.85;;;;;;;26.34;70.75;100251.72;8303461;28;20121;-62
2023/06/08 17:47:56;;;;;;;8.52;6.10;;;;;;;26.23;71.35;100244.31;8301505;28;20042;-63
2023/06/08 17:51:56;;;;;;;9.33;6.00;;;;;;;26.08;71.25;100255.13;8318066;28;20115;-62
2023/06/08 17:55:58;;;;;;;6.97;6.28;;;;;;;25.82;72.56;100261.19;8313768;28;20089;-63
2023/06/08 17:59:58;;;;;;;8.20;6.63;;;;;;;25.38;77.54;100286.84;8308580;28;20053;-59
2023/06/08 18:03:59;;;;;;;8.10;7.15;;;;;;;25.09;74.77;100281.41;8318977;28;20037;-60
2023/06/08 18:07:59;;;;;;;9.95;6.80;;;;;;;25.06;72.07;100266.09;8318155;28;20041;-59
2023/06/08 18:12:00;;;;;;;10.10;6.28;;;;;;;25.11;72.15;100290.28;8317420;28;20128;-60
2023/06/08 18:16:00;;;;;;;6.55;5.85;;;;;;;24.91;71.17;100297.00;8318318;28;20103;-59
2023/06/08 18:20:04;;;;;;;7.30;5.50;;;;;;;24.64;71.24;100294.91;8318320;28;20037;-63
2023/06/08 18:24:05;;;;;;;10.38;5.45;;;;;;;24.33;70.95;100287.72;8319982;28;20077;-59